sensor_id;sensor_type;location;lat;lon;timestamp;P1;durP1;ratioP1;P2;durP2;ratioP2
4430;SDS011;2228;48.140;11.488;2023-05-10T00:00:54;3.05;;;2.30;;
4430;SDS011;2228;48.140;11.488;2023-05-10T00:03:23;3.20;;;2.30;;
4430;SDS011;2228;48.140;11.488;2023-05-10T00:05:50;5.60;;;2.58;;
4430;SDS011;2228;48.140;11.488;2023-05-10T00:08:17;4.38;;;2.60;;
4430;SDS011;2228;48.140;11.488;2023-05-10T00:10:44;3.00;;;2.00;;
4430;SDS011;2228;48.140;11.488;2023-05-10T00:13:12;4.63;;;2.17;;
4430;SDS011;2228;48.140;11.488;2023-05-10T00:15:39;3.30;;;1.92;;
4430;SDS011;2228;48.140;11.488;2023-05-10T00:18:06;3.97;;;1.77;;
4430;SDS011;2228;48.140;11.488;2023-05-10T00:20:34;3.65;;;2.10;;
4430;SDS011;2228;48.140;11.488;2023-05-10T00:23:01;2.28;;;1.95;;
4430;SDS011;2228;48.140;11.488;2023-05-10T00:25:28;4.38;;;2.17;;
4430;SDS011;2228;48.140;11.488;2023-05-10T00:27:55;3.10;;;1.92;;
4430;SDS011;2228;48.140;11.488;2023-05-10T00:30:22;2.40;;;1.80;;
4430;SDS011;2228;48.140;11.488;2023-05-10T00:32:49;2.92;;;1.88;;
4430;SDS011;2228;48.140;11.488;2023-05-10T00:35:16;1.80;;;1.70;;
4430;SDS011;2228;48.140;11.488;2023-05-10T00:37:45;1.85;;;1.52;;
4430;SDS011;2228;48.140;11.488;2023-05-10T00:40:12;2.90;;;1.70;;
4430;SDS011;2228;48.140;11.488;2023-05-10T00:42:39;2.40;;;1.50;;
4430;SDS011;2228;48.140;11.488;2023-05-10T00:45:06;2.00;;;1.30;;
4430;SDS011;2228;48.140;11.488;2023-05-10T00:47:34;2.40;;;1.27;;
4430;SDS011;2228;48.140;11.488;2023-05-10T00:50:01;2.05;;;1.20;;
4430;SDS011;2228;48.140;11.488;2023-05-10T00:52:28;7.70;;;1.60;;
4430;SDS011;2228;48.140;11.488;2023-05-10T00:54:57;2.50;;;1.30;;
4430;SDS011;2228;48.140;11.488;2023-05-10T00:57:24;1.30;;;1.10;;
4430;SDS011;2228;48.140;11.488;2023-05-10T00:59:51;1.88;;;1.40;;
4430;SDS011;2228;48.140;11.488;2023-05-10T01:02:18;1.45;;;1.20;;
4430;SDS011;2228;48.140;11.488;2023-05-10T01:04:45;3.20;;;1.30;;
4430;SDS011;2228;48.140;11.488;2023-05-10T01:07:12;1.47;;;1.20;;
4430;SDS011;2228;48.140;11.488;2023-05-10T01:09:39;3.83;;;1.20;;
4430;SDS011;2228;48.140;11.488;2023-05-10T01:12:07;1.30;;;1.20;;
4430;SDS011;2228;48.140;11.488;2023-05-10T01:14:34;1.20;;;1.00;;
4430;SDS011;2228;48.140;11.488;2023-05-10T01:17:02;2.10;;;1.10;;
4430;SDS011;2228;48.140;11.488;2023-05-10T01:19:31;1.40;;;1.10;;
4430;SDS011;2228;48.140;11.488;2023-05-10T01:22:02;2.00;;;1.20;;
4430;SDS011;2228;48.140;11.488;2023-05-10T01:30:50;1.50;;;1.00;;
4430;SDS011;2228;48.140;11.488;2023-05-10T01:33:35;4.38;;;0.90;;
4430;SDS011;2228;48.140;11.488;2023-05-10T01:36:12;1.60;;;0.90;;
4430;SDS011;2228;48.140;11.488;2023-05-10T01:38:46;1.60;;;1.10;;
4430;SDS011;2228;48.140;11.488;2023-05-10T01:41:17;1.33;;;0.90;;
4430;SDS011;2228;48.140;11.488;2023-05-10T01:43:48;2.00;;;0.75;;
4430;SDS011;2228;48.140;11.488;2023-05-10T01:46:23;4.00;;;1.20;;
4430;SDS011;2228;48.140;11.488;2023-05-10T01:48:57;2.08;;;0.90;;
4430;SDS011;2228;48.140;11.488;2023-05-10T01:51:27;1.23;;;1.00;;
4430;SDS011;2228;48.140;11.488;2023-05-10T01:54:02;1.70;;;1.00;;
4430;SDS011;2228;48.140;11.488;2023-05-10T01:56:30;1.50;;;1.00;;
4430;SDS011;2228;48.140;11.488;2023-05-10T01:58:59;1.77;;;1.20;;
4430;SDS011;2228;48.140;11.488;2023-05-10T02:01:30;2.03;;;1.00;;
4430;SDS011;2228;48.140;11.488;2023-05-10T02:04:01;1.20;;;1.00;;
4430;SDS011;2228;48.140;11.488;2023-05-10T02:06:29;1.40;;;1.00;;
4430;SDS011;2228;48.140;11.488;2023-05-10T02:08:58;1.58;;;0.90;;
4430;SDS011;2228;48.140;11.488;2023-05-10T02:11:27;1.10;;;1.00;;
4430;SDS011;2228;48.140;11.488;2023-05-10T02:13:55;1.20;;;1.00;;
4430;SDS011;2228;48.140;11.488;2023-05-10T02:16:24;2.90;;;1.10;;
4430;SDS011;2228;48.140;11.488;2023-05-10T02:18:55;4.80;;;1.00;;
4430;SDS011;2228;48.140;11.488;2023-05-10T02:21:27;1.55;;;1.00;;
4430;SDS011;2228;48.140;11.488;2023-05-10T02:23:56;4.15;;;1.42;;
4430;SDS011;2228;48.140;11.488;2023-05-10T02:26:24;1.40;;;0.90;;
4430;SDS011;2228;48.140;11.488;2023-05-10T02:28:52;1.60;;;0.80;;
4430;SDS011;2228;48.140;11.488;2023-05-10T02:31:20;1.20;;;0.90;;
4430;SDS011;2228;48.140;11.488;2023-05-10T02:33:48;1.00;;;0.90;;
4430;SDS011;2228;48.140;11.488;2023-05-10T02:36:15;1.45;;;1.00;;
4430;SDS011;2228;48.140;11.488;2023-05-10T02:38:45;2.40;;;1.20;;
4430;SDS011;2228;48.140;11.488;2023-05-10T02:41:13;1.70;;;0.90;;
4430;SDS011;2228;48.140;11.488;2023-05-10T02:43:41;1.58;;;0.90;;
4430;SDS011;2228;48.140;11.488;2023-05-10T02:46:09;2.13;;;1.13;;
4430;SDS011;2228;48.140;11.488;2023-05-10T02:48:36;1.10;;;1.00;;
4430;SDS011;2228;48.140;11.488;2023-05-10T02:51:04;1.58;;;1.10;;
4430;SDS011;2228;48.140;11.488;2023-05-10T02:53:34;1.20;;;1.08;;
4430;SDS011;2228;48.140;11.488;2023-05-10T02:56:07;2.90;;;1.00;;
4430;SDS011;2228;48.140;11.488;2023-05-10T02:58:40;1.20;;;1.10;;
4430;SDS011;2228;48.140;11.488;2023-05-10T03:01:07;1.30;;;1.00;;
4430;SDS011;2228;48.140;11.488;2023-05-10T03:03:34;3.10;;;1.07;;
4430;SDS011;2228;48.140;11.488;2023-05-10T03:06:01;1.30;;;1.00;;
4430;SDS011;2228;48.140;11.488;2023-05-10T03:08:27;2.40;;;0.90;;
4430;SDS011;2228;48.140;11.488;2023-05-10T03:10:57;1.40;;;0.90;;
4430;SDS011;2228;48.140;11.488;2023-05-10T03:13:39;2.75;;;0.90;;
4430;SDS011;2228;48.140;11.488;2023-05-10T03:16:15;1.20;;;0.80;;
4430;SDS011;2228;48.140;11.488;2023-05-10T03:18:47;0.93;;;0.82;;
4430;SDS011;2228;48.140;11.488;2023-05-10T03:21:20;1.42;;;0.90;;
4430;SDS011;2228;48.140;11.488;2023-05-10T03:23:54;4.50;;;1.10;;
4430;SDS011;2228;48.140;11.488;2023-05-10T03:26:26;1.50;;;0.70;;
4430;SDS011;2228;48.140;11.488;2023-05-10T03:28:56;1.40;;;0.90;;
4430;SDS011;2228;48.140;11.488;2023-05-10T03:31:24;2.40;;;0.80;;
4430;SDS011;2228;48.140;11.488;2023-05-10T03:33:52;1.52;;;0.90;;
4430;SDS011;2228;48.140;11.488;2023-05-10T03:36:19;3.30;;;1.00;;
4430;SDS011;2228;48.140;11.488;2023-05-10T03:38:46;1.85;;;0.90;;
4430;SDS011;2228;48.140;11.488;2023-05-10T03:41:13;0.90;;;0.80;;
4430;SDS011;2228;48.140;11.488;2023-05-10T03:43:40;1.00;;;0.80;;
4430;SDS011;2228;48.140;11.488;2023-05-10T03:46:08;0.90;;;0.70;;
4430;SDS011;2228;48.140;11.488;2023-05-10T03:48:35;2.20;;;0.90;;
4430;SDS011;2228;48.140;11.488;2023-05-10T03:51:02;2.78;;;1.00;;
4430;SDS011;2228;48.140;11.488;2023-05-10T03:53:29;1.70;;;0.80;;
4430;SDS011;2228;48.140;11.488;2023-05-10T03:55:56;1.90;;;1.10;;
4430;SDS011;2228;48.140;11.488;2023-05-10T03:58:23;1.70;;;0.80;;
4430;SDS011;2228;48.140;11.488;2023-05-10T04:00:50;1.00;;;0.80;;
4430;SDS011;2228;48.140;11.488;2023-05-10T04:03:19;1.90;;;0.75;;
4430;SDS011;2228;48.140;11.488;2023-05-10T04:05:46;1.00;;;0.90;;
4430;SDS011;2228;48.140;11.488;2023-05-10T04:08:13;1.10;;;0.75;;
4430;SDS011;2228;48.140;11.488;2023-05-10T04:10:41;3.35;;;1.20;;
4430;SDS011;2228;48.140;11.488;2023-05-10T04:13:08;1.10;;;0.80;;
4430;SDS011;2228;48.140;11.488;2023-05-10T04:15:36;4.93;;;0.80;;
4430;SDS011;2228;48.140;11.488;2023-05-10T04:18:03;1.30;;;0.75;;
4430;SDS011;2228;48.140;11.488;2023-05-10T04:20:31;0.80;;;0.70;;
4430;SDS011;2228;48.140;11.488;2023-05-10T04:22:59;1.40;;;0.60;;
4430;SDS011;2228;48.140;11.488;2023-05-10T04:25:26;2.00;;;0.80;;
4430;SDS011;2228;48.140;11.488;2023-05-10T04:27:53;1.23;;;0.70;;
4430;SDS011;2228;48.140;11.488;2023-05-10T04:30:20;2.25;;;0.70;;
4430;SDS011;2228;48.140;11.488;2023-05-10T04:32:47;1.60;;;0.90;;
4430;SDS011;2228;48.140;11.488;2023-05-10T04:35:13;2.22;;;0.73;;
4430;SDS011;2228;48.140;11.488;2023-05-10T04:37:42;1.30;;;0.80;;
4430;SDS011;2228;48.140;11.488;2023-05-10T04:40:09;3.10;;;0.80;;
4430;SDS011;2228;48.140;11.488;2023-05-10T04:42:37;1.70;;;0.70;;
4430;SDS011;2228;48.140;11.488;2023-05-10T04:45:06;0.90;;;0.70;;
4430;SDS011;2228;48.140;11.488;2023-05-10T04:47:34;1.10;;;0.80;;
4430;SDS011;2228;48.140;11.488;2023-05-10T04:50:02;2.90;;;0.70;;
4430;SDS011;2228;48.140;11.488;2023-05-10T04:52:29;1.20;;;0.75;;
4430;SDS011;2228;48.140;11.488;2023-05-10T04:54:58;1.00;;;0.68;;
4430;SDS011;2228;48.140;11.488;2023-05-10T04:57:26;0.90;;;0.60;;
4430;SDS011;2228;48.140;11.488;2023-05-10T04:59:53;2.40;;;0.70;;
4430;SDS011;2228;48.140;11.488;2023-05-10T05:02:20;1.00;;;0.60;;
4430;SDS011;2228;48.140;11.488;2023-05-10T05:04:48;2.40;;;0.70;;
4430;SDS011;2228;48.140;11.488;2023-05-10T05:07:16;0.70;;;0.60;;
4430;SDS011;2228;48.140;11.488;2023-05-10T05:09:43;0.90;;;0.60;;
4430;SDS011;2228;48.140;11.488;2023-05-10T05:12:11;1.10;;;0.60;;
4430;SDS011;2228;48.140;11.488;2023-05-10T05:14:39;1.30;;;0.70;;
4430;SDS011;2228;48.140;11.488;2023-05-10T05:17:06;0.80;;;0.60;;
4430;SDS011;2228;48.140;11.488;2023-05-10T05:19:33;0.90;;;0.60;;
4430;SDS011;2228;48.140;11.488;2023-05-10T05:22:00;2.95;;;0.82;;
4430;SDS011;2228;48.140;11.488;2023-05-10T05:24:27;2.13;;;0.70;;
4430;SDS011;2228;48.140;11.488;2023-05-10T05:26:54;0.88;;;0.70;;
4430;SDS011;2228;48.140;11.488;2023-05-10T05:29:22;2.20;;;0.73;;
4430;SDS011;2228;48.140;11.488;2023-05-10T05:31:49;1.00;;;0.80;;
4430;SDS011;2228;48.140;11.488;2023-05-10T05:34:16;1.40;;;0.70;;
4430;SDS011;2228;48.140;11.488;2023-05-10T05:36:43;1.50;;;0.60;;
4430;SDS011;2228;48.140;11.488;2023-05-10T05:39:09;0.90;;;0.70;;
4430;SDS011;2228;48.140;11.488;2023-05-10T05:41:36;0.88;;;0.70;;
4430;SDS011;2228;48.140;11.488;2023-05-10T05:44:03;3.00;;;0.90;;
4430;SDS011;2228;48.140;11.488;2023-05-10T05:46:31;0.93;;;0.73;;
4430;SDS011;2228;48.140;11.488;2023-05-10T05:48:58;2.95;;;0.95;;
4430;SDS011;2228;48.140;11.488;2023-05-10T05:51:26;2.40;;;0.80;;
4430;SDS011;2228;48.140;11.488;2023-05-10T05:53:53;2.00;;;0.90;;
4430;SDS011;2228;48.140;11.488;2023-05-10T05:56:20;1.10;;;0.80;;
4430;SDS011;2228;48.140;11.488;2023-05-10T05:58:49;1.58;;;1.00;;
4430;SDS011;2228;48.140;11.488;2023-05-10T06:01:16;4.13;;;0.80;;
4430;SDS011;2228;48.140;11.488;2023-05-10T06:03:44;1.80;;;0.75;;
4430;SDS011;2228;48.140;11.488;2023-05-10T06:06:11;1.10;;;0.70;;
4430;SDS011;2228;48.140;11.488;2023-05-10T06:08:38;1.30;;;0.90;;
4430;SDS011;2228;48.140;11.488;2023-05-10T06:11:05;1.10;;;0.70;;
4430;SDS011;2228;48.140;11.488;2023-05-10T06:13:32;2.38;;;0.80;;
4430;SDS011;2228;48.140;11.488;2023-05-10T06:16:00;1.50;;;0.80;;
4430;SDS011;2228;48.140;11.488;2023-05-10T06:18:27;2.30;;;0.80;;
4430;SDS011;2228;48.140;11.488;2023-05-10T06:20:55;1.13;;;0.90;;
4430;SDS011;2228;48.140;11.488;2023-05-10T06:23:22;1.00;;;0.80;;
4430;SDS011;2228;48.140;11.488;2023-05-10T06:25:50;2.00;;;1.20;;
4430;SDS011;2228;48.140;11.488;2023-05-10T06:28:17;3.22;;;1.27;;
4430;SDS011;2228;48.140;11.488;2023-05-10T06:30:44;1.50;;;0.82;;
4430;SDS011;2228;48.140;11.488;2023-05-10T06:33:11;2.10;;;1.00;;
4430;SDS011;2228;48.140;11.488;2023-05-10T06:35:38;1.37;;;0.83;;
4430;SDS011;2228;48.140;11.488;2023-05-10T06:38:06;1.40;;;0.90;;
4430;SDS011;2228;48.140;11.488;2023-05-10T06:40:33;1.27;;;1.08;;
4430;SDS011;2228;48.140;11.488;2023-05-10T06:43:01;1.15;;;0.80;;
4430;SDS011;2228;48.140;11.488;2023-05-10T06:45:27;2.95;;;1.00;;
4430;SDS011;2228;48.140;11.488;2023-05-10T06:47:55;2.90;;;0.80;;
4430;SDS011;2228;48.140;11.488;2023-05-10T06:50:22;2.80;;;0.80;;
4430;SDS011;2228;48.140;11.488;2023-05-10T06:52:48;1.70;;;1.30;;
4430;SDS011;2228;48.140;11.488;2023-05-10T06:55:17;1.90;;;1.08;;
4430;SDS011;2228;48.140;11.488;2023-05-10T06:57:44;2.60;;;1.00;;
4430;SDS011;2228;48.140;11.488;2023-05-10T07:00:11;1.00;;;0.80;;
4430;SDS011;2228;48.140;11.488;2023-05-10T07:02:38;1.42;;;0.82;;
4430;SDS011;2228;48.140;11.488;2023-05-10T07:05:05;2.70;;;0.90;;
4430;SDS011;2228;48.140;11.488;2023-05-10T07:07:32;1.52;;;0.90;;
4430;SDS011;2228;48.140;11.488;2023-05-10T07:09:59;2.50;;;0.70;;
4430;SDS011;2228;48.140;11.488;2023-05-10T07:12:28;0.90;;;0.70;;
4430;SDS011;2228;48.140;11.488;2023-05-10T07:14:54;1.10;;;0.90;;
4430;SDS011;2228;48.140;11.488;2023-05-10T07:17:21;2.03;;;0.90;;
4430;SDS011;2228;48.140;11.488;2023-05-10T07:19:48;1.15;;;0.70;;
4430;SDS011;2228;48.140;11.488;2023-05-10T07:22:15;3.30;;;0.80;;
4430;SDS011;2228;48.140;11.488;2023-05-10T07:24:42;3.53;;;0.80;;
4430;SDS011;2228;48.140;11.488;2023-05-10T07:27:09;2.00;;;0.90;;
4430;SDS011;2228;48.140;11.488;2023-05-10T07:29:38;4.10;;;0.80;;
4430;SDS011;2228;48.140;11.488;2023-05-10T07:32:05;3.03;;;0.90;;
4430;SDS011;2228;48.140;11.488;2023-05-10T07:34:32;1.80;;;0.90;;
4430;SDS011;2228;48.140;11.488;2023-05-10T07:36:59;2.70;;;0.90;;
4430;SDS011;2228;48.140;11.488;2023-05-10T07:39:26;3.50;;;0.90;;
4430;SDS011;2228;48.140;11.488;2023-05-10T07:41:53;1.10;;;0.90;;
4430;SDS011;2228;48.140;11.488;2023-05-10T07:44:21;3.50;;;0.90;;
4430;SDS011;2228;48.140;11.488;2023-05-10T07:46:49;1.60;;;0.80;;
4430;SDS011;2228;48.140;11.488;2023-05-10T07:49:16;1.50;;;0.80;;
4430;SDS011;2228;48.140;11.488;2023-05-10T07:51:43;1.20;;;0.80;;
4430;SDS011;2228;48.140;11.488;2023-05-10T07:54:10;0.80;;;0.70;;
4430;SDS011;2228;48.140;11.488;2023-05-10T07:56:37;1.00;;;0.88;;
4430;SDS011;2228;48.140;11.488;2023-05-10T07:59:06;1.25;;;0.90;;
4430;SDS011;2228;48.140;11.488;2023-05-10T08:01:33;1.83;;;0.82;;
4430;SDS011;2228;48.140;11.488;2023-05-10T08:04:02;3.00;;;0.80;;
4430;SDS011;2228;48.140;11.488;2023-05-10T08:06:28;0.90;;;0.70;;
4430;SDS011;2228;48.140;11.488;2023-05-10T08:08:55;0.90;;;0.70;;
4430;SDS011;2228;48.140;11.488;2023-05-10T08:11:22;1.30;;;0.80;;
4430;SDS011;2228;48.140;11.488;2023-05-10T08:13:49;0.90;;;0.80;;
4430;SDS011;2228;48.140;11.488;2023-05-10T08:16:17;1.30;;;0.60;;
4430;SDS011;2228;48.140;11.488;2023-05-10T08:18:45;1.00;;;0.70;;
4430;SDS011;2228;48.140;11.488;2023-05-10T08:21:13;0.90;;;0.70;;
4430;SDS011;2228;48.140;11.488;2023-05-10T08:23:41;1.50;;;0.80;;
4430;SDS011;2228;48.140;11.488;2023-05-10T08:26:09;0.90;;;0.80;;
4430;SDS011;2228;48.140;11.488;2023-05-10T08:28:35;1.73;;;0.90;;
4430;SDS011;2228;48.140;11.488;2023-05-10T08:31:02;1.80;;;0.80;;
4430;SDS011;2228;48.140;11.488;2023-05-10T08:33:30;1.40;;;0.80;;
4430;SDS011;2228;48.140;11.488;2023-05-10T08:35:57;2.60;;;0.80;;
4430;SDS011;2228;48.140;11.488;2023-05-10T08:38:25;1.20;;;0.70;;
4430;SDS011;2228;48.140;11.488;2023-05-10T08:40:52;3.30;;;0.80;;
4430;SDS011;2228;48.140;11.488;2023-05-10T08:43:24;1.10;;;0.80;;
4430;SDS011;2228;48.140;11.488;2023-05-10T08:45:54;2.28;;;0.80;;
4430;SDS011;2228;48.140;11.488;2023-05-10T08:48:22;2.90;;;1.00;;
4430;SDS011;2228;48.140;11.488;2023-05-10T08:50:52;1.40;;;1.00;;
4430;SDS011;2228;48.140;11.488;2023-05-10T08:53:21;0.80;;;0.70;;
4430;SDS011;2228;48.140;11.488;2023-05-10T08:55:51;1.50;;;0.80;;
4430;SDS011;2228;48.140;11.488;2023-05-10T08:58:19;2.60;;;0.80;;
4430;SDS011;2228;48.140;11.488;2023-05-10T09:00:46;1.80;;;0.80;;
4430;SDS011;2228;48.140;11.488;2023-05-10T09:03:15;0.90;;;0.70;;
4430;SDS011;2228;48.140;11.488;2023-05-10T09:05:42;1.52;;;0.77;;
4430;SDS011;2228;48.140;11.488;2023-05-10T09:08:10;3.10;;;0.70;;
4430;SDS011;2228;48.140;11.488;2023-05-10T09:10:40;2.85;;;0.70;;
4430;SDS011;2228;48.140;11.488;2023-05-10T09:13:10;1.80;;;0.60;;
4430;SDS011;2228;48.140;11.488;2023-05-10T09:15:37;1.40;;;0.60;;
4430;SDS011;2228;48.140;11.488;2023-05-10T09:18:05;1.20;;;0.90;;
4430;SDS011;2228;48.140;11.488;2023-05-10T09:20:32;1.10;;;0.80;;
4430;SDS011;2228;48.140;11.488;2023-05-10T09:22:59;1.10;;;0.60;;
4430;SDS011;2228;48.140;11.488;2023-05-10T09:25:26;0.80;;;0.70;;
4430;SDS011;2228;48.140;11.488;2023-05-10T09:27:53;1.20;;;0.70;;
4430;SDS011;2228;48.140;11.488;2023-05-10T09:30:25;2.63;;;0.70;;
4430;SDS011;2228;48.140;11.488;2023-05-10T09:32:54;1.10;;;0.70;;
4430;SDS011;2228;48.140;11.488;2023-05-10T09:35:22;1.00;;;0.60;;
4430;SDS011;2228;48.140;11.488;2023-05-10T09:37:52;1.37;;;0.70;;
4430;SDS011;2228;48.140;11.488;2023-05-10T09:40:21;1.90;;;0.70;;
4430;SDS011;2228;48.140;11.488;2023-05-10T09:42:52;1.20;;;0.73;;
4430;SDS011;2228;48.140;11.488;2023-05-10T09:45:20;0.70;;;0.60;;
4430;SDS011;2228;48.140;11.488;2023-05-10T09:47:55;2.40;;;0.80;;
4430;SDS011;2228;48.140;11.488;2023-05-10T09:50:23;0.80;;;0.63;;
4430;SDS011;2228;48.140;11.488;2023-05-10T09:52:51;0.77;;;0.67;;
4430;SDS011;2228;48.140;11.488;2023-05-10T09:55:20;8.20;;;1.10;;
4430;SDS011;2228;48.140;11.488;2023-05-10T09:57:58;2.20;;;0.70;;
4430;SDS011;2228;48.140;11.488;2023-05-10T10:00:27;3.30;;;0.80;;
4430;SDS011;2228;48.140;11.488;2023-05-10T10:03:02;1.30;;;0.70;;
4430;SDS011;2228;48.140;11.488;2023-05-10T10:05:34;1.00;;;0.70;;
4430;SDS011;2228;48.140;11.488;2023-05-10T10:08:02;2.20;;;0.90;;
4430;SDS011;2228;48.140;11.488;2023-05-10T10:10:31;3.10;;;0.70;;
4430;SDS011;2228;48.140;11.488;2023-05-10T10:12:59;0.80;;;0.70;;
4430;SDS011;2228;48.140;11.488;2023-05-10T10:15:30;4.25;;;0.90;;
4430;SDS011;2228;48.140;11.488;2023-05-10T10:17:58;2.08;;;0.60;;
4430;SDS011;2228;48.140;11.488;2023-05-10T10:20:30;2.90;;;0.60;;
4430;SDS011;2228;48.140;11.488;2023-05-10T10:22:57;1.02;;;0.80;;
4430;SDS011;2228;48.140;11.488;2023-05-10T10:25:24;0.90;;;0.60;;
4430;SDS011;2228;48.140;11.488;2023-05-10T10:27:56;0.90;;;0.70;;
4430;SDS011;2228;48.140;11.488;2023-05-10T10:30:35;1.73;;;0.90;;
4430;SDS011;2228;48.140;11.488;2023-05-10T10:36:12;1.40;;;0.80;;
4430;SDS011;2228;48.140;11.488;2023-05-10T10:38:56;2.60;;;1.10;;
4430;SDS011;2228;48.140;11.488;2023-05-10T10:41:29;2.97;;;0.82;;
4430;SDS011;2228;48.140;11.488;2023-05-10T10:46:58;3.40;;;1.35;;
4430;SDS011;2228;48.140;11.488;2023-05-10T10:49:27;2.08;;;0.80;;
4430;SDS011;2228;48.140;11.488;2023-05-10T10:52:20;1.30;;;1.10;;
4430;SDS011;2228;48.140;11.488;2023-05-10T10:54:52;3.80;;;1.10;;
4430;SDS011;2228;48.140;11.488;2023-05-10T10:57:20;1.42;;;1.00;;
4430;SDS011;2228;48.140;11.488;2023-05-10T10:59:47;9.27;;;1.30;;
4430;SDS011;2228;48.140;11.488;2023-05-10T11:02:34;2.20;;;1.10;;
4430;SDS011;2228;48.140;11.488;2023-05-10T11:05:33;3.30;;;1.20;;
4430;SDS011;2228;48.140;11.488;2023-05-10T11:08:08;3.45;;;1.20;;
4430;SDS011;2228;48.140;11.488;2023-05-10T11:10:37;2.30;;;1.10;;
4430;SDS011;2228;48.140;11.488;2023-05-10T11:13:05;2.58;;;1.27;;
4430;SDS011;2228;48.140;11.488;2023-05-10T11:15:33;3.43;;;1.80;;
4430;SDS011;2228;48.140;11.488;2023-05-10T11:18:15;4.30;;;1.60;;
4430;SDS011;2228;48.140;11.488;2023-05-10T11:20:43;4.43;;;1.95;;
4430;SDS011;2228;48.140;11.488;2023-05-10T11:23:13;4.05;;;1.70;;
4430;SDS011;2228;48.140;11.488;2023-05-10T11:25:43;2.92;;;1.70;;
4430;SDS011;2228;48.140;11.488;2023-05-10T11:28:10;11.48;;;2.50;;
4430;SDS011;2228;48.140;11.488;2023-05-10T11:30:38;12.07;;;2.60;;
4430;SDS011;2228;48.140;11.488;2023-05-10T11:33:05;4.30;;;3.00;;
4430;SDS011;2228;48.140;11.488;2023-05-10T11:35:37;5.47;;;3.47;;
4430;SDS011;2228;48.140;11.488;2023-05-10T11:38:05;5.70;;;3.30;;
4430;SDS011;2228;48.140;11.488;2023-05-10T11:40:34;7.00;;;3.00;;
4430;SDS011;2228;48.140;11.488;2023-05-10T11:43:01;5.32;;;2.60;;
4430;SDS011;2228;48.140;11.488;2023-05-10T11:45:29;4.50;;;2.00;;
4430;SDS011;2228;48.140;11.488;2023-05-10T11:47:58;3.47;;;1.40;;
4430;SDS011;2228;48.140;11.488;2023-05-10T11:50:26;3.45;;;1.30;;
4430;SDS011;2228;48.140;11.488;2023-05-10T11:52:54;3.90;;;1.20;;
4430;SDS011;2228;48.140;11.488;2023-05-10T11:55:22;4.60;;;1.40;;
4430;SDS011;2228;48.140;11.488;2023-05-10T11:57:52;5.20;;;1.50;;
4430;SDS011;2228;48.140;11.488;2023-05-10T12:00:20;2.08;;;1.27;;
4430;SDS011;2228;48.140;11.488;2023-05-10T12:02:48;3.92;;;1.30;;
4430;SDS011;2228;48.140;11.488;2023-05-10T12:05:15;5.28;;;1.52;;
4430;SDS011;2228;48.140;11.488;2023-05-10T12:07:42;3.03;;;1.80;;
4430;SDS011;2228;48.140;11.488;2023-05-10T12:10:10;4.43;;;1.60;;
4430;SDS011;2228;48.140;11.488;2023-05-10T12:12:40;8.88;;;1.70;;
4430;SDS011;2228;48.140;11.488;2023-05-10T12:15:16;4.88;;;1.80;;
4430;SDS011;2228;48.140;11.488;2023-05-10T12:17:44;3.17;;;1.55;;
4430;SDS011;2228;48.140;11.488;2023-05-10T12:20:13;4.28;;;1.90;;
4430;SDS011;2228;48.140;11.488;2023-05-10T12:22:41;5.20;;;1.88;;
4430;SDS011;2228;48.140;11.488;2023-05-10T12:25:09;2.30;;;1.70;;
4430;SDS011;2228;48.140;11.488;2023-05-10T12:27:36;2.85;;;1.73;;
4430;SDS011;2228;48.140;11.488;2023-05-10T12:30:04;3.78;;;1.60;;
4430;SDS011;2228;48.140;11.488;2023-05-10T12:32:40;2.45;;;1.95;;
4430;SDS011;2228;48.140;11.488;2023-05-10T12:35:07;4.28;;;2.13;;
4430;SDS011;2228;48.140;11.488;2023-05-10T12:37:35;1.60;;;1.20;;
4430;SDS011;2228;48.140;11.488;2023-05-10T12:40:08;3.88;;;1.80;;
4430;SDS011;2228;48.140;11.488;2023-05-10T12:42:38;3.63;;;1.55;;
4430;SDS011;2228;48.140;11.488;2023-05-10T12:45:06;1.40;;;1.30;;
4430;SDS011;2228;48.140;11.488;2023-05-10T12:47:34;3.10;;;1.30;;
4430;SDS011;2228;48.140;11.488;2023-05-10T12:50:03;3.20;;;1.40;;
4430;SDS011;2228;48.140;11.488;2023-05-10T12:52:31;3.13;;;1.50;;
4430;SDS011;2228;48.140;11.488;2023-05-10T12:54:58;4.03;;;1.88;;
4430;SDS011;2228;48.140;11.488;2023-05-10T12:57:26;5.05;;;1.80;;
4430;SDS011;2228;48.140;11.488;2023-05-10T12:59:53;7.20;;;2.40;;
4430;SDS011;2228;48.140;11.488;2023-05-10T13:02:20;2.45;;;2.00;;
4430;SDS011;2228;48.140;11.488;2023-05-10T13:04:48;6.75;;;2.40;;
4430;SDS011;2228;48.140;11.488;2023-05-10T13:07:17;5.82;;;2.30;;
4430;SDS011;2228;48.140;11.488;2023-05-10T13:09:43;3.58;;;2.05;;
4430;SDS011;2228;48.140;11.488;2023-05-10T13:12:10;3.75;;;2.20;;
4430;SDS011;2228;48.140;11.488;2023-05-10T13:14:37;4.30;;;2.22;;
4430;SDS011;2228;48.140;11.488;2023-05-10T13:17:05;3.13;;;1.88;;
4430;SDS011;2228;48.140;11.488;2023-05-10T13:19:34;4.88;;;2.13;;
4430;SDS011;2228;48.140;11.488;2023-05-10T13:22:02;3.20;;;2.10;;
4430;SDS011;2228;48.140;11.488;2023-05-10T13:24:30;4.70;;;1.90;;
4430;SDS011;2228;48.140;11.488;2023-05-10T13:26:57;3.78;;;1.80;;
4430;SDS011;2228;48.140;11.488;2023-05-10T13:29:24;2.50;;;1.60;;
4430;SDS011;2228;48.140;11.488;2023-05-10T13:31:51;6.80;;;3.80;;
4430;SDS011;2228;48.140;11.488;2023-05-10T13:34:18;7.53;;;2.70;;
4430;SDS011;2228;48.140;11.488;2023-05-10T13:36:46;9.27;;;2.75;;
4430;SDS011;2228;48.140;11.488;2023-05-10T13:39:14;7.15;;;3.60;;
4430;SDS011;2228;48.140;11.488;2023-05-10T13:41:42;6.50;;;2.20;;
4430;SDS011;2228;48.140;11.488;2023-05-10T13:44:11;6.13;;;2.10;;
4430;SDS011;2228;48.140;11.488;2023-05-10T13:46:38;9.15;;;3.03;;
4430;SDS011;2228;48.140;11.488;2023-05-10T13:49:05;5.53;;;2.00;;
4430;SDS011;2228;48.140;11.488;2023-05-10T13:51:33;8.02;;;2.70;;
4430;SDS011;2228;48.140;11.488;2023-05-10T13:54:00;3.70;;;2.10;;
4430;SDS011;2228;48.140;11.488;2023-05-10T13:56:27;4.40;;;2.30;;
4430;SDS011;2228;48.140;11.488;2023-05-10T13:58:56;3.20;;;2.07;;
4430;SDS011;2228;48.140;11.488;2023-05-10T14:01:23;2.80;;;1.77;;
4430;SDS011;2228;48.140;11.488;2023-05-10T14:03:50;4.90;;;2.00;;
4430;SDS011;2228;48.140;11.488;2023-05-10T14:06:17;3.10;;;1.95;;
4430;SDS011;2228;48.140;11.488;2023-05-10T14:08:44;2.90;;;1.80;;
4430;SDS011;2228;48.140;11.488;2023-05-10T14:11:11;4.22;;;1.80;;
4430;SDS011;2228;48.140;11.488;2023-05-10T14:13:38;2.58;;;1.67;;
4430;SDS011;2228;48.140;11.488;2023-05-10T14:16:06;2.97;;;1.67;;
4430;SDS011;2228;48.140;11.488;2023-05-10T14:18:33;2.90;;;1.63;;
4430;SDS011;2228;48.140;11.488;2023-05-10T14:21:01;1.85;;;1.50;;
4430;SDS011;2228;48.140;11.488;2023-05-10T14:23:28;2.92;;;1.70;;
4430;SDS011;2228;48.140;11.488;2023-05-10T14:25:56;3.50;;;1.30;;
4430;SDS011;2228;48.140;11.488;2023-05-10T14:28:23;3.10;;;1.05;;
4430;SDS011;2228;48.140;11.488;2023-05-10T14:30:52;3.53;;;1.20;;
4430;SDS011;2228;48.140;11.488;2023-05-10T14:33:21;1.60;;;0.90;;
4430;SDS011;2228;48.140;11.488;2023-05-10T14:35:48;2.60;;;1.20;;
4430;SDS011;2228;48.140;11.488;2023-05-10T14:38:15;1.30;;;1.00;;
4430;SDS011;2228;48.140;11.488;2023-05-10T14:40:42;3.70;;;1.50;;
4430;SDS011;2228;48.140;11.488;2023-05-10T14:43:10;1.83;;;1.10;;
4430;SDS011;2228;48.140;11.488;2023-05-10T14:45:37;3.55;;;1.20;;
4430;SDS011;2228;48.140;11.488;2023-05-10T14:48:03;1.55;;;1.00;;
4430;SDS011;2228;48.140;11.488;2023-05-10T14:50:32;2.10;;;1.27;;
4430;SDS011;2228;48.140;11.488;2023-05-10T14:52:59;2.40;;;1.20;;
4430;SDS011;2228;48.140;11.488;2023-05-10T14:55:26;2.53;;;1.30;;
4430;SDS011;2228;48.140;11.488;2023-05-10T14:57:54;2.80;;;1.25;;
4430;SDS011;2228;48.140;11.488;2023-05-10T15:00:21;2.33;;;1.40;;
4430;SDS011;2228;48.140;11.488;2023-05-10T15:02:49;3.35;;;1.35;;
4430;SDS011;2228;48.140;11.488;2023-05-10T15:05:16;2.20;;;1.60;;
4430;SDS011;2228;48.140;11.488;2023-05-10T15:07:44;3.28;;;1.50;;
4430;SDS011;2228;48.140;11.488;2023-05-10T15:10:11;1.60;;;1.30;;
4430;SDS011;2228;48.140;11.488;2023-05-10T15:12:39;2.55;;;1.20;;
4430;SDS011;2228;48.140;11.488;2023-05-10T15:15:06;4.50;;;1.50;;
4430;SDS011;2228;48.140;11.488;2023-05-10T15:17:33;2.43;;;1.40;;
4430;SDS011;2228;48.140;11.488;2023-05-10T15:20:00;3.67;;;1.60;;